Time;durP1;ratioP1;P1;durP2;ratioP2;P2;SDS_P1;SDS_P2;PMS_P1;PMS_P2;Temp;Humidity;BMP_temperature;BMP_pressure;BME280_temperature;BME280_humidity;BME280_pressure;Samples;Min_cycle;Max_cycle;Signal;HPM_P1;HPM_P2
2023/05/02 00:01:31;;;;;;;29.37;26.57;;;12.70;99.90;;;;;;5017217;28;20435;-70
2023/05/02 00:04:00;;;;;;;27.80;25.20;;;12.70;99.90;;;;;;5018350;28;20463;-70
2023/05/02 00:06:31;;;;;;;30.70;27.67;;;12.70;99.90;;;;;;5013134;28;20808;-70
2023/05/02 00:08:59;;;;;;;29.87;27.17;;;12.70;99.90;;;;;;5013769;28;20970;-70
2023/05/02 00:11:27;;;;;;;30.00;27.10;;;12.70;99.90;;;;;;5014151;28;20431;-70
2023/05/02 00:13:55;;;;;;;29.77;26.87;;;12.70;99.90;;;;;;5013645;28;20459;-70
2023/05/02 00:16:23;;;;;;;29.83;26.83;;;12.70;99.90;;;;;;5017941;28;20436;-71
2023/05/02 00:18:51;;;;;;;30.97;27.77;;;12.70;99.90;;;;;;5019570;28;20436;-70
2023/05/02 00:21:20;;;;;;;29.23;26.33;;;12.70;99.90;;;;;;5018374;28;20431;-70
2023/05/02 00:23:50;;;;;;;29.40;26.40;;;12.70;99.90;;;;;;5016734;28;20471;-70
2023/05/02 00:26:18;;;;;;;27.80;24.90;;;12.70;99.90;;;;;;5018888;28;20770;-70
2023/05/02 00:28:47;;;;;;;27.47;24.70;;;12.70;99.90;;;;;;5020161;28;20569;-70
2023/05/02 00:31:15;;;;;;;27.60;24.90;;;12.70;99.90;;;;;;5020355;28;21041;-70
2023/05/02 00:33:43;;;;;;;27.17;24.37;;;12.70;99.90;;;;;;5020367;28;20490;-70
2023/05/02 00:36:15;;;;;;;25.23;22.73;;;12.60;99.90;;;;;;5018825;28;20507;-70
2023/05/02 00:38:45;;;;;;;25.53;22.90;;;12.60;99.90;;;;;;5018499;28;20440;-70
2023/05/02 00:41:14;;;;;;;25.73;23.03;;;12.60;99.90;;;;;;5018274;28;20478;-70
2023/05/02 00:43:42;;;;;;;26.73;24.10;;;12.60;99.90;;;;;;5018498;28;20502;-70
2023/05/02 00:46:11;;;;;;;26.20;23.40;;;12.60;99.90;;;;;;5015558;28;20459;-70
2023/05/02 00:48:40;;;;;;;25.33;23.03;;;12.60;99.90;;;;;;5016666;28;20915;-70
2023/05/02 00:51:11;;;;;;;25.43;22.73;;;12.60;99.90;;;;;;5015632;28;20877;-70
2023/05/02 00:53:39;;;;;;;24.13;21.73;;;12.60;99.90;;;;;;5017075;28;20467;-70
2023/05/02 00:56:09;;;;;;;22.93;20.63;;;12.60;99.90;;;;;;5015501;28;20440;-70
2023/05/02 00:58:40;;;;;;;25.40;22.80;;;12.60;99.90;;;;;;5016570;28;20468;-70
2023/05/02 01:01:26;;;;;;;25.53;23.03;;;12.60;99.90;;;;;;5016849;28;20420;-70
2023/05/02 01:04:08;;;;;;;23.07;20.73;;;12.60;99.90;;;;;;5015442;28;20822;-70
2023/05/02 01:06:48;;;;;;;20.67;18.57;;;12.60;99.90;;;;;;5015469;28;20447;-70
2023/05/02 01:09:30;;;;;;;21.23;19.03;;;12.50;99.90;;;;;;5015307;28;20459;-70
2023/05/02 01:12:03;;;;;;;21.27;19.07;;;12.50;99.90;;;;;;5015303;28;20439;-70
2023/05/02 01:14:35;;;;;;;20.37;18.27;;;12.50;99.90;;;;;;5018072;28;20865;-70
2023/05/02 01:17:07;;;;;;;19.67;17.60;;;12.50;99.90;;;;;;5017157;28;20835;-70
2023/05/02 01:19:39;;;;;;;20.03;17.97;;;12.50;99.90;;;;;;5019978;28;20478;-71
2023/05/02 01:22:10;;;;;;;19.03;17.03;;;12.40;99.90;;;;;;5020036;28;20432;-71
2023/05/02 01:24:54;;;;;;;19.63;17.63;;;12.40;99.90;;;;;;5016305;28;20517;-71
2023/05/02 01:27:34;;;;;;;19.20;16.43;;;12.40;99.90;;;;;;5022474;28;20450;-71
2023/05/02 01:30:06;;;;;;;20.43;17.67;;;12.30;99.90;;;;;;5022190;28;20468;-71
2023/05/02 01:32:39;;;;;;;22.20;19.77;;;12.30;99.90;;;;;;5019257;28;20431;-71
2023/05/02 01:35:10;;;;;;;21.27;17.87;;;12.30;99.90;;;;;;5019901;28;20460;-71
2023/05/02 01:37:40;;;;;;;22.53;18.03;;;12.30;99.90;;;;;;5019959;28;20416;-71
2023/05/02 01:40:10;;;;;;;18.73;16.83;;;12.20;99.90;;;;;;5015751;28;20527;-71
2023/05/02 01:42:40;;;;;;;20.80;18.47;;;12.20;99.90;;;;;;5017335;28;20459;-71
2023/05/02 01:45:12;;;;;;;19.90;17.30;;;12.10;99.90;;;;;;5017116;28;21001;-71
2023/05/02 01:47:43;;;;;;;22.00;18.37;;;12.10;99.90;;;;;;5014897;28;20455;-71
2023/05/02 01:50:15;;;;;;;22.93;18.90;;;12.00;99.90;;;;;;5016580;28;20464;-71
2023/05/02 01:52:45;;;;;;;22.43;18.50;;;12.00;99.90;;;;;;5015283;28;21154;-71
2023/05/02 01:55:16;;;;;;;20.13;17.47;;;11.90;99.90;;;;;;5015870;28;20456;-71
2023/05/02 01:57:46;;;;;;;20.00;16.10;;;11.90;99.90;;;;;;5016369;28;20492;-71
2023/05/02 02:00:17;;;;;;;20.90;15.80;;;11.90;99.90;;;;;;5014933;28;20527;-71
2023/05/02 02:02:48;;;;;;;14.87;13.03;;;11.90;99.90;;;;;;5014523;28;20475;-71
2023/05/02 02:05:18;;;;;;;14.40;12.07;;;11.80;99.90;;;;;;5015820;28;20993;-71
2023/05/02 02:07:47;;;;;;;10.60;8.67;;;11.80;99.90;;;;;;5014472;28;20440;-71
2023/05/02 02:10:15;;;;;;;7.70;6.60;;;11.70;99.90;;;;;;5014167;28;20472;-71
2023/05/02 02:12:49;;;;;;;5.90;5.30;;;11.60;99.90;;;;;;5016028;28;20435;-70
2023/05/02 02:15:24;;;;;;;5.20;4.33;;;11.60;99.90;;;;;;5014285;28;20471;-71
2023/05/02 02:18:00;;;;;;;5.60;4.60;;;11.50;99.90;;;;;;5014671;28;20948;-71
2023/05/02 02:20:30;;;;;;;5.23;3.40;;;11.40;99.90;;;;;;5014159;28;20516;-71
2023/05/02 02:23:01;;;;;;;4.83;3.10;;;11.40;99.90;;;;;;5015628;28;20507;-71
2023/05/02 02:25:30;;;;;;;4.93;2.80;;;11.30;99.90;;;;;;5014129;28;20448;-71
2023/05/02 02:27:58;;;;;;;4.53;2.30;;;11.20;99.90;;;;;;5014222;28;20990;-71
2023/05/02 02:30:29;;;;;;;5.00;2.77;;;11.10;99.90;;;;;;5014070;28;21060;-71
2023/05/02 02:32:57;;;;;;;5.00;2.97;;;11.10;99.90;;;;;;5015392;28;20535;-71
2023/05/02 02:35:44;;;;;;;6.13;3.13;;;11.00;99.90;;;;;;5013765;28;20468;-71
2023/05/02 02:38:22;;;;;;;5.27;3.30;;;11.00;99.90;;;;;;5015193;28;20424;-71
2023/05/02 02:41:06;;;;;;;5.83;3.63;;;10.90;99.90;;;;;;5014989;28;20412;-71
2023/05/02 02:43:43;;;;;;;6.53;3.90;;;10.80;99.90;;;;;;5013520;28;20464;-71
2023/05/02 02:46:25;;;;;;;9.80;4.40;;;10.80;99.90;;;;;;5014381;28;20799;-71
2023/05/02 02:49:02;;;;;;;8.30;4.20;;;10.80;99.90;;;;;;5015538;28;20452;-71
2023/05/02 02:51:37;;;;;;;11.17;5.00;;;10.80;99.90;;;;;;5017496;28;20780;-71
2023/05/02 02:54:11;;;;;;;9.17;4.90;;;10.70;99.90;;;;;;5016871;28;20456;-71
2023/05/02 02:57:01;;;;;;;10.50;5.10;;;10.70;99.90;;;;;;5013912;28;20440;-71
2023/05/02 02:59:33;;;;;;;11.80;5.00;;;10.60;99.90;;;;;;5013956;28;20451;-71
2023/05/02 03:02:08;;;;;;;12.40;5.70;;;10.60;99.90;;;;;;5013402;28;20440;-71
2023/05/02 03:04:39;;;;;;;7.60;4.57;;;10.50;99.90;;;;;;5013281;28;20471;-71
2023/05/02 03:07:07;;;;;;;9.97;5.23;;;10.50;99.90;;;;;;5014618;28;20428;-71
2023/05/02 03:09:42;;;;;;;11.50;5.87;;;10.50;99.90;;;;;;5013047;28;20480;-71
2023/05/02 03:12:14;;;;;;;12.60;5.60;;;10.50;99.90;;;;;;5013115;28;20466;-71
2023/05/02 03:14:44;;;;;;;11.80;5.90;;;10.50;99.90;;;;;;5013313;28;20471;-71
2023/05/02 03:17:13;;;;;;;15.63;6.40;;;10.40;99.90;;;;;;5013235;28;20535;-71
2023/05/02 03:19:42;;;;;;;14.77;6.60;;;10.40;99.90;;;;;;5013120;28;20440;-71
2023/05/02 03:22:10;;;;;;;15.13;7.00;;;10.40;99.90;;;;;;5013324;28;20444;-71
2023/05/02 03:24:39;;;;;;;12.90;6.40;;;10.40;99.90;;;;;;5012860;28;20467;-71
2023/05/02 03:27:08;;;;;;;15.93;6.27;;;10.40;99.90;;;;;;5012947;28;20452;-71
2023/05/02 03:29:41;;;;;;;19.70;6.50;;;10.30;99.90;;;;;;5012837;28;20522;-70
2023/05/02 03:32:11;;;;;;;15.60;7.53;;;10.30;99.90;;;;;;5014429;28;20460;-71
2023/05/02 03:34:43;;;;;;;15.33;7.43;;;10.30;99.90;;;;;;5014163;28;20480;-71
2023/05/02 03:37:11;;;;;;;18.97;7.50;;;10.20;99.90;;;;;;5014033;28;20487;-70
2023/05/02 03:39:39;;;;;;;16.10;7.53;;;10.20;99.90;;;;;;5014204;28;20428;-70
2023/05/02 03:42:07;;;;;;;16.90;7.17;;;10.20;99.90;;;;;;5012663;28;20816;-70
2023/05/02 03:44:35;;;;;;;17.17;6.63;;;10.10;99.90;;;;;;5013959;28;20503;-70
2023/05/02 03:47:04;;;;;;;20.50;9.00;;;10.10;99.90;;;;;;5012779;28;21045;-70
2023/05/02 03:49:37;;;;;;;17.37;7.00;;;10.00;99.90;;;;;;5012430;28;20479;-70
2023/05/02 03:52:08;;;;;;;17.80;7.70;;;10.00;99.90;;;;;;5012291;28;20510;-71
2023/05/02 03:54:37;;;;;;;19.97;7.67;;;10.00;99.90;;;;;;5012322;28;21012;-70
2023/05/02 03:57:06;;;;;;;21.93;8.77;;;9.90;99.90;;;;;;5012655;28;20976;-70
2023/05/02 03:59:36;;;;;;;17.10;7.47;;;9.90;99.90;;;;;;5012230;28;20456;-70
2023/05/02 04:02:13;;;;;;;13.90;6.60;;;9.90;99.90;;;;;;5016004;28;20475;-70
2023/05/02 04:04:46;;;;;;;18.40;8.17;;;9.80;99.90;;;;;;5016565;28;20463;-70
2023/05/02 04:07:18;;;;;;;20.43;7.77;;;9.80;99.90;;;;;;5016201;28;20448;-71
2023/05/02 04:09:57;;;;;;;20.23;8.10;;;9.80;99.90;;;;;;5015922;28;20498;-71
2023/05/02 04:12:27;;;;;;;22.87;8.30;;;9.80;99.90;;;;;;5015928;28;20451;-70
2023/05/02 04:14:56;;;;;;;20.53;7.67;;;9.70;99.90;;;;;;5015637;28;20570;-70
2023/05/02 04:17:27;;;;;;;18.90;8.87;;;9.70;99.90;;;;;;5015910;28;20822;-70
2023/05/02 04:19:56;;;;;;;18.23;7.60;;;9.70;99.90;;;;;;5015727;28;20458;-70
2023/05/02 04:22:29;;;;;;;15.60;7.00;;;9.60;99.90;;;;;;5015840;28;20446;-70
2023/05/02 04:25:01;;;;;;;17.07;7.30;;;9.60;99.90;;;;;;5015735;28;20521;-70
2023/05/02 04:27:30;;;;;;;19.50;7.23;;;9.60;99.90;;;;;;5015688;28;20835;-70
2023/05/02 04:29:59;;;;;;;15.33;6.60;;;9.60;99.90;;;;;;5015542;28;20475;-70
2023/05/02 04:32:28;;;;;;;16.57;7.27;;;9.60;99.90;;;;;;5016866;28;20490;-70
2023/05/02 04:34:57;;;;;;;18.57;7.83;;;9.50;99.90;;;;;;5015577;28;20498;-70
2023/05/02 04:37:26;;;;;;;16.90;7.03;;;9.50;99.90;;;;;;5015931;28;20448;-70
2023/05/02 04:39:56;;;;;;;14.10;6.23;;;9.50;99.90;;;;;;5015585;28;20455;-70
2023/05/02 04:42:27;;;;;;;16.10;7.30;;;9.50;99.90;;;;;;5015445;28;20466;-70
2023/05/02 04:45:07;;;;;;;15.30;6.30;;;9.50;99.90;;;;;;5015779;28;20541;-70
2023/05/02 04:47:35;;;;;;;17.17;5.90;;;9.50;99.90;;;;;;5015182;28;21814;-71
2023/05/02 04:50:04;;;;;;;11.70;6.33;;;9.50;99.90;;;;;;5016295;28;20420;-70
2023/05/02 04:52:32;;;;;;;14.87;6.40;;;9.50;99.90;;;;;;5015308;28;20458;-70
2023/05/02 04:55:01;;;;;;;15.23;6.63;;;9.50;99.90;;;;;;5015341;28;20471;-70
2023/05/02 04:57:30;;;;;;;12.83;6.40;;;9.40;99.90;;;;;;5016056;28;20475;-70
2023/05/02 05:00:00;;;;;;;20.73;6.80;;;9.40;99.90;;;;;;5015077;28;20471;-70
2023/05/02 05:02:29;;;;;;;15.70;6.27;;;9.40;99.90;;;;;;5014939;28;20946;-70
2023/05/02 05:05:00;;;;;;;14.83;6.90;;;9.40;99.90;;;;;;5014913;28;20467;-70
2023/05/02 05:07:29;;;;;;;14.53;6.40;;;9.40;99.90;;;;;;5015071;28;20870;-70
2023/05/02 05:09:58;;;;;;;16.37;6.57;;;9.40;99.90;;;;;;5014730;28;20463;-70
2023/05/02 05:12:31;;;;;;;12.97;5.90;;;9.40;99.90;;;;;;5015203;28;20535;-70
2023/05/02 05:15:00;;;;;;;12.50;6.50;;;9.40;99.90;;;;;;5015969;28;20466;-70
2023/05/02 05:17:29;;;;;;;15.27;6.30;;;9.40;99.90;;;;;;5015221;28;20454;-70
2023/05/02 05:19:58;;;;;;;13.37;5.37;;;9.40;99.90;;;;;;5014660;28;20837;-70
2023/05/02 05:22:27;;;;;;;15.67;6.80;;;9.40;99.90;;;;;;5014708;28;20440;-70
2023/05/02 05:24:56;;;;;;;14.17;5.93;;;9.40;99.90;;;;;;5014661;28;20834;-70
2023/05/02 05:27:28;;;;;;;18.13;6.33;;;9.40;99.90;;;;;;5014875;28;20436;-70
2023/05/02 05:29:58;;;;;;;14.23;6.30;;;9.40;99.90;;;;;;5014557;28;20455;-70
2023/05/02 05:32:27;;;;;;;15.60;6.20;;;9.30;99.90;;;;;;5014380;28;20464;-70
2023/05/02 05:34:56;;;;;;;17.33;6.10;;;9.30;99.90;;;;;;5014260;28;20998;-71
2023/05/02 05:37:26;;;;;;;13.67;5.73;;;9.30;99.90;;;;;;5014317;28;20950;-70
2023/05/02 05:39:56;;;;;;;10.53;5.13;;;9.30;99.90;;;;;;5014282;28;20455;-70
2023/05/02 05:42:25;;;;;;;14.80;6.20;;;9.30;99.90;;;;;;5015476;28;20432;-70
2023/05/02 05:44:59;;;;;;;12.87;5.90;;;9.30;99.90;;;;;;5014142;28;20479;-70
2023/05/02 05:47:27;;;;;;;15.13;5.93;;;9.30;99.90;;;;;;5014067;28;20455;-71
2023/05/02 05:49:56;;;;;;;13.07;5.20;;;9.30;99.90;;;;;;5014149;28;20425;-70
2023/05/02 05:52:28;;;;;;;13.57;5.67;;;9.30;99.90;;;;;;5014200;28;20479;-70
2023/05/02 05:54:59;;;;;;;11.10;4.77;;;9.30;99.90;;;;;;5014793;28;20459;-71
2023/05/02 05:57:29;;;;;;;7.97;4.13;;;9.30;99.90;;;;;;5014196;28;20467;-70
2023/05/02 05:59:59;;;;;;;13.70;4.63;;;9.20;99.90;;;;;;5013865;28;20959;-70
2023/05/02 06:02:28;;;;;;;13.43;5.50;;;9.10;99.90;;;;;;5013878;28;20448;-70
2023/05/02 06:04:57;;;;;;;12.80;5.47;;;9.10;99.90;;;;;;5013751;28;20463;-70
2023/05/02 06:07:26;;;;;;;18.97;6.07;;;9.10;99.90;;;;;;5013879;28;20458;-70
2023/05/02 06:09:54;;;;;;;12.03;5.00;;;9.00;99.90;;;;;;5013770;28;20455;-70
2023/05/02 06:12:22;;;;;;;15.03;5.73;;;9.00;99.90;;;;;;5013610;28;21072;-70
2023/05/02 06:14:51;;;;;;;11.20;5.10;;;9.00;99.90;;;;;;5013769;28;20882;-70
2023/05/02 06:17:21;;;;;;;10.33;4.87;;;9.00;99.90;;;;;;5017573;28;20456;-72
2023/05/02 06:19:49;;;;;;;10.90;4.87;;;9.00;99.90;;;;;;5014951;28;20454;-70
2023/05/02 06:22:18;;;;;;;14.67;5.50;;;8.90;99.90;;;;;;5015546;28;20518;-70
2023/05/02 06:24:46;;;;;;;8.30;4.80;;;8.90;99.90;;;;;;5014418;28;20451;-70
2023/05/02 06:27:14;;;;;;;14.50;5.50;;;8.90;99.90;;;;;;5015038;28;21007;-71
2023/05/02 06:29:42;;;;;;;13.53;4.73;;;8.90;99.90;;;;;;5015110;28;20440;-70
2023/05/02 06:32:10;;;;;;;13.70;4.77;;;8.90;99.90;;;;;;5014853;28;20966;-71
2023/05/02 06:34:40;;;;;;;10.93;5.20;;;8.90;99.90;;;;;;5014913;28;20505;-70
2023/05/02 06:37:08;;;;;;;18.63;5.50;;;8.90;99.90;;;;;;5014990;28;20444;-71
2023/05/02 06:39:36;;;;;;;12.70;5.40;;;8.80;99.90;;;;;;5014936;28;20472;-71
2023/05/02 06:42:04;;;;;;;9.20;4.57;;;8.80;99.90;;;;;;5014993;28;20931;-71
2023/05/02 06:44:33;;;;;;;8.83;4.93;;;8.80;99.90;;;;;;5013472;28;20530;-71
2023/05/02 06:47:03;;;;;;;10.80;4.83;;;8.80;99.90;;;;;;5014421;28;20444;-69
2023/05/02 06:49:32;;;;;;;8.93;4.80;;;8.80;99.90;;;;;;5014523;28;20939;-69
2023/05/02 06:52:01;;;;;;;11.70;4.90;;;8.80;99.90;;;;;;5014742;28;20978;-69
2023/05/02 06:54:29;;;;;;;10.87;4.50;;;8.70;99.90;;;;;;5014293;28;21047;-69
2023/05/02 06:56:57;;;;;;;10.33;5.20;;;8.70;99.90;;;;;;5013357;28;20451;-69
2023/05/02 06:59:26;;;;;;;9.47;4.27;;;8.70;99.90;;;;;;5015267;28;20828;-69
2023/05/02 07:01:54;;;;;;;12.23;4.90;;;8.70;99.90;;;;;;5014302;28;20485;-69
2023/05/02 07:04:22;;;;;;;12.90;5.03;;;8.80;99.90;;;;;;5014316;28;20986;-69
2023/05/02 07:06:50;;;;;;;12.73;4.40;;;8.80;99.90;;;;;;5014456;28;20440;-69
2023/05/02 07:09:20;;;;;;;10.00;5.13;;;8.80;99.90;;;;;;5014208;28;20444;-69
2023/05/02 07:11:48;;;;;;;8.43;3.97;;;8.80;99.90;;;;;;5014177;28;20468;-69
2023/05/02 07:14:16;;;;;;;9.67;4.40;;;8.80;99.90;;;;;;5014298;28;20522;-69
2023/05/02 07:16:44;;;;;;;11.43;4.50;;;8.80;99.90;;;;;;5013760;28;20444;-69
2023/05/02 07:19:12;;;;;;;8.90;4.17;;;8.90;99.90;;;;;;5013824;28;20447;-69
2023/05/02 07:21:40;;;;;;;9.47;4.50;;;8.90;99.90;;;;;;5013831;28;20547;-69
2023/05/02 07:24:08;;;;;;;10.47;4.97;;;8.90;99.90;;;;;;5014023;28;20559;-71
2023/05/02 07:26:38;;;;;;;9.13;3.87;;;8.90;99.90;;;;;;5013855;28;20567;-71
2023/05/02 07:29:07;;;;;;;11.23;5.10;;;9.00;99.90;;;;;;5013913;28;20937;-71
2023/05/02 07:31:35;;;;;;;14.03;5.00;;;9.00;99.90;;;;;;5013974;28;21131;-71
2023/05/02 07:34:03;;;;;;;12.27;5.60;;;9.00;99.90;;;;;;5012415;28;20550;-69
2023/05/02 07:36:31;;;;;;;9.63;4.87;;;9.00;99.90;;;;;;5013204;28;20446;-69
2023/05/02 07:39:00;;;;;;;10.50;4.87;;;9.00;99.90;;;;;;5013508;28;20442;-69
2023/05/02 07:41:28;;;;;;;10.17;4.70;;;9.10;99.90;;;;;;5013579;28;20961;-69
2023/05/02 07:43:57;;;;;;;12.00;5.10;;;9.10;99.90;;;;;;5013668;28;20510;-69
2023/05/02 07:46:25;;;;;;;11.70;4.50;;;9.10;99.90;;;;;;5013812;28;20538;-69
2023/05/02 07:48:53;;;;;;;11.07;5.10;;;9.10;99.90;;;;;;5013219;28;20542;-69
2023/05/02 07:51:21;;;;;;;10.50;4.93;;;9.20;99.90;;;;;;5012139;28;20522;-69
2023/05/02 07:53:52;;;;;;;10.83;4.87;;;9.20;99.90;;;;;;5012070;28;20559;-69
2023/05/02 07:56:20;;;;;;;11.53;4.27;;;9.30;99.90;;;;;;5013945;28;20637;-69
2023/05/02 07:58:48;;;;;;;12.97;4.40;;;9.30;99.90;;;;;;5013468;28;20436;-69
2023/05/02 08:01:19;;;;;;;15.80;5.60;;;9.40;99.90;;;;;;5012464;28;20687;-69
2023/05/02 08:03:48;;;;;;;10.40;5.40;;;9.40;99.90;;;;;;5013839;28;20463;-69
2023/05/02 08:06:16;;;;;;;10.80;4.60;;;9.40;99.90;;;;;;5013459;28;20934;-69
2023/05/02 08:08:45;;;;;;;17.17;5.40;;;9.50;99.90;;;;;;5013966;28;20489;-69
2023/05/02 08:11:13;;;;;;;10.20;4.40;;;9.50;99.90;;;;;;5012137;28;20451;-69
2023/05/02 08:13:41;;;;;;;13.30;4.80;;;9.50;99.90;;;;;;5013341;28;20840;-69
2023/05/02 08:16:09;;;;;;;9.20;4.53;;;9.50;99.70;;;;;;5012129;28;20462;-69
2023/05/02 08:18:40;;;;;;;9.33;4.50;;;9.50;99.70;;;;;;5013563;28;20440;-69
2023/05/02 08:21:08;;;;;;;9.97;5.10;;;9.60;99.70;;;;;;5012926;28;20436;-70
2023/05/02 08:23:36;;;;;;;8.20;4.50;;;9.60;99.70;;;;;;5013399;28;20873;-69
2023/05/02 08:26:04;;;;;;;10.23;4.27;;;9.70;99.60;;;;;;5013601;28;20442;-69
2023/05/02 08:28:35;;;;;;;8.73;3.80;;;9.70;99.40;;;;;;5013864;28;20424;-69
2023/05/02 08:31:03;;;;;;;11.90;4.23;;;9.70;99.40;;;;;;5012227;28;20447;-70
2023/05/02 08:33:31;;;;;;;9.47;3.83;;;9.60;99.50;;;;;;5013424;28;20626;-70
2023/05/02 08:36:01;;;;;;;7.50;3.40;;;9.70;99.60;;;;;;5013931;28;20447;-69
2023/05/02 08:38:29;;;;;;;7.20;3.63;;;9.80;99.60;;;;;;5013941;28;20454;-70
2023/05/02 08:40:57;;;;;;;7.20;4.17;;;9.90;99.60;;;;;;5013906;28;20443;-70
2023/05/02 08:43:25;;;;;;;9.83;4.20;;;10.00;99.10;;;;;;5013553;28;20443;-70
2023/05/02 08:45:58;;;;;;;8.87;4.37;;;10.10;99.20;;;;;;5014184;28;20450;-71
2023/05/02 08:48:27;;;;;;;9.90;4.30;;;10.40;99.40;;;;;;5015655;28;20463;-70
2023/05/02 08:50:56;;;;;;;11.73;4.00;;;10.50;99.10;;;;;;5017492;28;20440;-70
2023/05/02 08:53:26;;;;;;;12.37;4.73;;;10.50;98.90;;;;;;5017309;28;20876;-70
2023/05/02 08:55:54;;;;;;;8.60;3.77;;;10.50;98.70;;;;;;5017839;28;20420;-70
2023/05/02 08:58:22;;;;;;;7.30;3.63;;;10.40;98.60;;;;;;5015864;28;20510;-69
2023/05/02 09:00:51;;;;;;;7.40;3.50;;;10.40;98.40;;;;;;5017358;28;20440;-70
2023/05/02 09:03:28;;;;;;;7.60;3.37;;;10.40;98.50;;;;;;5017061;28;20440;-70
2023/05/02 09:06:07;;;;;;;8.67;4.00;;;10.30;98.40;;;;;;5017486;28;20776;-70
2023/05/02 09:08:37;;;;;;;7.27;3.23;;;10.30;98.60;;;;;;5017296;28;20451;-70
2023/05/02 09:11:06;;;;;;;6.70;3.27;;;10.30;99.00;;;;;;5017158;28;20800;-70
2023/05/02 09:13:36;;;;;;;8.90;3.67;;;10.30;98.80;;;;;;5016861;28;20529;-70
2023/05/02 09:16:05;;;;;;;5.20;3.20;;;10.30;98.80;;;;;;5016745;28;20438;-70
2023/05/02 09:18:37;;;;;;;7.37;3.10;;;10.30;98.70;;;;;;5016799;28;20480;-70
2023/05/02 09:21:07;;;;;;;5.70;2.97;;;10.40;98.50;;;;;;5015780;28;20436;-69
2023/05/02 09:23:39;;;;;;;6.73;3.10;;;10.50;98.50;;;;;;5017618;28;20463;-70
2023/05/02 09:26:16;;;;;;;8.10;2.90;;;10.50;98.40;;;;;;5017903;28;20424;-70
2023/05/02 09:28:46;;;;;;;8.40;3.23;;;10.70;98.60;;;;;;5018432;28;20416;-70
2023/05/02 09:31:15;;;;;;;6.20;2.70;;;10.90;98.70;;;;;;5017920;28;20427;-69
2023/05/02 09:33:54;;;;;;;9.37;3.10;;;11.00;98.50;;;;;;5018102;28;20994;-70
2023/05/02 09:36:23;;;;;;;6.70;2.37;;;11.20;98.40;;;;;;5018066;28;20436;-70
2023/05/02 09:39:10;;;;;;;8.87;2.70;;;11.30;98.40;;;;;;5017581;28;20436;-70
2023/05/02 09:41:42;;;;;;;3.90;2.37;;;11.40;98.00;;;;;;5016130;28;20431;-70
2023/05/02 09:44:11;;;;;;;8.53;2.90;;;11.40;98.00;;;;;;5018906;28;20460;-71
2023/05/02 09:46:43;;;;;;;6.73;2.80;;;11.50;98.00;;;;;;5016827;28;20431;-70
2023/05/02 09:49:11;;;;;;;6.60;2.97;;;11.50;97.70;;;;;;5016025;28;20456;-70
2023/05/02 09:51:39;;;;;;;6.20;2.10;;;11.50;97.60;;;;;;5022155;28;20538;-70
2023/05/02 09:54:09;;;;;;;6.47;2.90;;;11.50;97.60;;;;;;5021510;28;20475;-70
2023/05/02 09:56:53;;;;;;;8.10;2.70;;;11.40;97.50;;;;;;5017658;28;20523;-70
2023/05/02 09:59:21;;;;;;;5.87;2.57;;;11.40;97.40;;;;;;5017094;28;20444;-70
2023/05/02 10:01:55;;;;;;;5.97;2.50;;;11.40;97.80;;;;;;5019355;28;20450;-70
2023/05/02 10:04:24;;;;;;;5.67;2.80;;;11.40;97.40;;;;;;5017017;28;20907;-71
2023/05/02 10:06:54;;;;;;;5.37;2.60;;;11.40;97.50;;;;;;5015512;28;21082;-70
2023/05/02 10:09:23;;;;;;;5.50;2.47;;;11.50;97.40;;;;;;5016939;28;20448;-70
2023/05/02 10:11:53;;;;;;;4.90;2.00;;;11.60;97.60;;;;;;5016023;28;20451;-70
2023/05/02 10:14:23;;;;;;;4.27;2.30;;;11.80;97.80;;;;;;5015676;28;20522;-70
2023/05/02 10:17:01;;;;;;;4.77;2.07;;;12.00;97.90;;;;;;5016233;28;20420;-70
2023/05/02 10:19:33;;;;;;;5.30;2.57;;;12.00;97.50;;;;;;5014401;28;20443;-69
2023/05/02 10:22:03;;;;;;;5.03;1.87;;;12.00;97.40;;;;;;5014055;28;20450;-70
2023/05/02 10:24:33;;;;;;;4.63;1.90;;;12.00;97.30;;;;;;5015462;28;20538;-70
2023/05/02 10:27:04;;;;;;;4.50;1.90;;;12.10;97.10;;;;;;5015715;28;20443;-70
2023/05/02 10:29:33;;;;;;;4.00;1.93;;;12.00;97.10;;;;;;5015259;28;20931;-70
2023/05/02 10:32:04;;;;;;;4.57;1.93;;;12.00;97.00;;;;;;5015376;28;20499;-70
2023/05/02 10:34:33;;;;;;;4.27;2.03;;;11.90;96.80;;;;;;5014947;28;20991;-70
2023/05/02 10:37:01;;;;;;;3.77;1.90;;;11.80;96.80;;;;;;5016249;28;20795;-70
2023/05/02 10:39:30;;;;;;;5.60;2.23;;;11.80;96.90;;;;;;5016306;28;20444;-70
2023/05/02 10:42:02;;;;;;;4.63;2.10;;;11.80;96.90;;;;;;5014758;28;20447;-70
2023/05/02 10:44:34;;;;;;;6.50;2.50;;;11.80;97.00;;;;;;5015372;28;20458;-70
2023/05/02 10:47:17;;;;;;;5.70;2.10;;;11.80;97.20;;;;;;5015610;28;20440;-69
2023/05/02 10:49:53;;;;;;;6.30;2.77;;;11.80;97.30;;;;;;5014450;28;20835;-70
2023/05/02 10:52:29;;;;;;;6.43;2.67;;;11.80;97.40;;;;;;5015816;28;20453;-70
2023/05/02 10:55:18;;;;;;;6.00;2.67;;;11.80;97.40;;;;;;5014582;28;20534;-70
2023/05/02 10:58:22;;;;;;;6.50;2.00;;;11.80;97.50;;;;;;5016596;28;20432;-70
2023/05/02 11:00:50;;;;;;;6.07;2.40;;;11.80;97.40;;;;;;5016818;28;20792;-70
2023/05/02 11:03:51;;;;;;;6.80;2.50;;;11.80;97.50;;;;;;5015090;28;20440;-70
2023/05/02 11:06:19;;;;;;;5.80;2.30;;;11.80;97.50;;;;;;5015632;28;20424;-70
2023/05/02 11:08:47;;;;;;;8.13;2.40;;;11.70;97.60;;;;;;5015813;28;20795;-70
2023/05/02 11:11:41;;;;;;;5.73;2.43;;;11.70;97.60;;;;;;5014200;28;20431;-70
2023/05/02 11:14:32;;;;;;;6.13;2.33;;;11.70;97.70;;;;;;5014501;28;20495;-70
2023/05/02 11:17:11;;;;;;;5.30;2.10;;;11.70;97.80;;;;;;5014256;28;20934;-70
2023/05/02 11:20:27;;;;;;;7.30;2.90;;;11.70;97.80;;;;;;5014011;28;20431;-70
2023/05/02 11:23:20;;;;;;;6.27;2.27;;;11.70;97.80;;;;;;5013849;28;20417;-70
2023/05/02 11:25:49;;;;;;;7.40;2.47;;;11.60;97.90;;;;;;5013754;28;20460;-70
2023/05/02 11:28:40;;;;;;;6.67;2.60;;;11.70;98.00;;;;;;5013736;28;21029;-70
2023/05/02 11:31:09;;;;;;;6.37;2.70;;;11.70;98.00;;;;;;5012392;28;20942;-70
2023/05/02 11:33:39;;;;;;;5.57;2.23;;;11.70;98.00;;;;;;5013627;28;20447;-70
2023/05/02 11:36:07;;;;;;;8.60;3.50;;;11.70;98.00;;;;;;5013667;28;20806;-70
2023/05/02 11:38:37;;;;;;;8.63;3.00;;;11.70;98.00;;;;;;5014153;28;20443;-70
2023/05/02 11:41:05;;;;;;;4.87;2.30;;;11.60;98.00;;;;;;5013522;28;20423;-70
2023/05/02 11:43:33;;;;;;;4.70;2.23;;;11.60;98.00;;;;;;5013478;28;20460;-70
2023/05/02 11:46:04;;;;;;;5.23;2.63;;;11.60;98.00;;;;;;5014010;28;20436;-70
2023/05/02 11:48:32;;;;;;;7.43;2.37;;;11.70;98.00;;;;;;5013703;28;20985;-70
2023/05/02 11:51:05;;;;;;;7.07;2.43;;;11.70;98.10;;;;;;5013824;28;20446;-70
2023/05/02 11:53:40;;;;;;;4.90;2.17;;;11.70;98.00;;;;;;5012111;28;21093;-70
2023/05/02 11:56:08;;;;;;;5.73;2.00;;;11.80;98.00;;;;;;5014061;28;20427;-70
2023/05/02 11:58:36;;;;;;;6.33;2.60;;;11.90;97.80;;;;;;5012502;28;20494;-70
2023/05/02 12:01:12;;;;;;;4.07;2.23;;;11.90;97.70;;;;;;5013578;28;20431;-70
2023/05/02 12:03:41;;;;;;;6.43;2.40;;;11.90;97.60;;;;;;5013779;28;20456;-70
2023/05/02 12:06:12;;;;;;;5.80;2.77;;;11.90;97.40;;;;;;5012163;28;20447;-70
2023/05/02 12:08:42;;;;;;;4.77;2.00;;;11.90;97.30;;;;;;5014115;28;20435;-70
2023/05/02 12:11:13;;;;;;;5.00;2.30;;;11.90;97.50;;;;;;5013906;28;20432;-70
2023/05/02 12:13:46;;;;;;;7.13;2.53;;;11.90;97.70;;;;;;5013627;28;20460;-69
2023/05/02 12:16:15;;;;;;;6.83;2.50;;;12.00;97.90;;;;;;5012674;28;20467;-70
2023/05/02 12:18:44;;;;;;;4.50;2.60;;;12.00;98.00;;;;;;5012778;28;20467;-70
2023/05/02 12:21:13;;;;;;;4.90;2.40;;;12.10;98.10;;;;;;5012532;28;20954;-70
2023/05/02 12:23:42;;;;;;;7.50;2.80;;;12.10;98.00;;;;;;5017485;28;20482;-69
2023/05/02 12:26:20;;;;;;;5.20;2.37;;;12.10;98.10;;;;;;5017584;28;20931;-70
2023/05/02 12:28:50;;;;;;;7.43;2.53;;;12.20;98.20;;;;;;5017711;28;21041;-70
2023/05/02 12:31:18;;;;;;;5.63;2.40;;;12.20;98.10;;;;;;5017141;28;20442;-69
2023/05/02 12:33:49;;;;;;;5.90;2.60;;;12.30;98.00;;;;;;5017029;28;20459;-70
2023/05/02 12:36:18;;;;;;;6.80;2.07;;;12.30;97.90;;;;;;5017021;28;20463;-70
2023/05/02 12:38:51;;;;;;;7.87;2.13;;;12.30;97.90;;;;;;5017333;28;20792;-70
2023/05/02 12:41:31;;;;;;;5.43;2.10;;;12.30;97.70;;;;;;5017177;28;20423;-70
2023/05/02 12:44:00;;;;;;;4.70;1.90;;;12.30;97.60;;;;;;5017060;28;20463;-70
2023/05/02 12:46:28;;;;;;;5.80;2.20;;;12.30;97.70;;;;;;5016979;28;20432;-70
2023/05/02 12:49:04;;;;;;;4.37;1.77;;;12.20;97.60;;;;;;5016870;28;20448;-70
2023/05/02 12:51:34;;;;;;;3.90;1.70;;;12.20;97.40;;;;;;5017036;28;20423;-69
2023/05/02 12:54:02;;;;;;;5.43;2.50;;;12.20;97.40;;;;;;5015118;28;20463;-70
2023/05/02 12:56:38;;;;;;;4.50;1.57;;;12.20;97.30;;;;;;5016634;28;20550;-70
2023/05/02 12:59:06;;;;;;;4.33;1.60;;;12.20;97.20;;;;;;5016595;28;20419;-69
2023/05/02 13:01:35;;;;;;;5.00;1.30;;;12.30;97.00;;;;;;5016246;28;20439;-69
2023/05/02 13:04:04;;;;;;;5.83;1.97;;;12.30;96.90;;;;;;5016188;28;20463;-69